Redmond, OR

2:44 PM PDT on September 18, 2014 (GMT -0700)
Roberts Field Airport | Change Station
CLOSE
Current Station
Airport
Location: Redmond,
Elevation: 3077 ft
Nearby Weather Stations

Elev 3077 ft 44.25 °N, 121.15 °W | Updated 48 minutes ago

Mostly Cloudy
Mostly Cloudy
71 °F
Feels Like 71 °F
N
6
Wind Variable Wind from North

Today
High -- | Low -- °F
--% Chance of Precip.
Yesterday
High -- | Low -- °F
Precip. -- in
6:47 AM 7:09 PM
Waning Crescent, 24% visible
Pressure 29.83 in
Visibility 10.0 miles
Clouds Mostly Cloudy 7000 ft
Mostly Cloudy 8500 ft
Dew Point 49 °F
Humidity 45%
Rainfall 0.03 in
Snow Depth 0 in , 0 in , 0 in
UV 4 out of 12
Pollen .40 out of 12
Air Quality Not available.
Flu Activity Not available.
METAR KRDM 182056Z COR 01005KT 10SM BKN070 BKN085 22/09 A2989 RMK AO2 SLP099 60000 T02170094 51005

More Conditions Fewer Conditions

Pressure 29.83 in
Visibility 10.0 miles
Clouds Mostly Cloudy 7000 ft
Mostly Cloudy 8500 ft
Dew Point 49 °F
Humidity 45%
Rainfall 0.03 in
Snow Depth 0 in , 0 in , 0 in
UV 4 out of 12
Pollen .40 out of 12
Air Quality Not available.
Flu Activity Not available.
METAR KRDM 182056Z COR 01005KT 10SM BKN070 BKN085 22/09 A2989 RMK AO2 SLP099 60000 T02170094 51005

More Conditions Fewer Conditions

10-Day Weather Forecast

Almanac

Astronomy

Sep. 18, 2014 Rise Set
Actual Time 6:47 AM PDT 7:09 PM PDT
Civil Twilight 6:18 AM PDT 7:38 PM PDT
Nautical Twilight 5:43 AM PDT 8:12 PM PDT
Astronomical Twilight 5:08 AM PDT 8:47 PM PDT
Moon 1:35 AM PDT 4:11 PM PDT
Length of Visible Light 13h 20m
Length of Day
12h 22m
Tomorrow will be 3m 1s shorter.
Waning Crescent, 24% of the Moon is Illuminated
Today
Waning Crescent
Sep 24
New
Oct 1
First Quarter
Oct 8
Full
Oct 15
Last Quarter

Today's Extremes

State Highs State Lows

Community

WunderPhotos

Upload Photos

1,754,452 photos uploaded!

WunderBlogs® & News

Nearby

Snow Depth

Station Depth Elevation
Daly Lake 0 in 3600 ft
Blazed Alder 0 in 3650 ft
Strawberry 0 in 5760 ft
Greenpoint 1 in 3200 ft
Diamond Lake 0 in 5315 ft

Earthquake Activity

City Distance Mag. Time & Date
No recent earthquake activity has been reported nearby.
Minimum magnitude displayed is 2.5.

Coastal Water Temperatures

Place Temperature
No Stations Reporting

Nearby Weather Stations